sensor_id;sensor_type;location;lat;lon;timestamp;pressure;altitude;pressure_sealevel;temperature;humidity
59337;BME280;45115;52.002;4.686;2023-03-18T00:00:11;100869.75;;;10.44;83.12
59337;BME280;45115;52.002;4.686;2023-03-18T00:02:40;100870.59;;;10.35;82.87
59337;BME280;45115;52.002;4.686;2023-03-18T00:05:08;100859.38;;;10.28;83.80
59337;BME280;45115;52.002;4.686;2023-03-18T00:07:36;100867.88;;;10.25;83.90
59337;BME280;45115;52.002;4.686;2023-03-18T00:10:05;100869.00;;;10.23;83.83
59337;BME280;45115;52.002;4.686;2023-03-18T00:12:32;100862.81;;;10.11;83.91
59337;BME280;45115;52.002;4.686;2023-03-18T00:14:59;100863.03;;;9.98;84.74
59337;BME280;45115;52.002;4.686;2023-03-18T00:17:27;100867.19;;;10.02;84.70
59337;BME280;45115;52.002;4.686;2023-03-18T00:19:53;100873.81;;;9.90;85.47
59337;BME280;45115;52.002;4.686;2023-03-18T00:22:20;100876.09;;;9.85;85.57
59337;BME280;45115;52.002;4.686;2023-03-18T00:24:47;100870.31;;;9.79;85.73
59337;BME280;45115;52.002;4.686;2023-03-18T00:27:15;100867.28;;;9.72;85.74
59337;BME280;45115;52.002;4.686;2023-03-18T00:29:42;100878.22;;;9.72;86.59
59337;BME280;45115;52.002;4.686;2023-03-18T00:32:10;100882.59;;;9.84;86.88
59337;BME280;45115;52.002;4.686;2023-03-18T00:34:37;100873.06;;;9.88;86.59
59337;BME280;45115;52.002;4.686;2023-03-18T00:37:03;100876.25;;;9.84;86.75
59337;BME280;45115;52.002;4.686;2023-03-18T00:39:30;100875.50;;;9.82;86.73
59337;BME280;45115;52.002;4.686;2023-03-18T00:41:58;100870.88;;;9.73;86.84
59337;BME280;45115;52.002;4.686;2023-03-18T00:44:27;100863.25;;;9.67;87.74
59337;BME280;45115;52.002;4.686;2023-03-18T00:46:55;100864.66;;;9.61;87.88
59337;BME280;45115;52.002;4.686;2023-03-18T00:49:21;100864.50;;;9.63;88.01
59337;BME280;45115;52.002;4.686;2023-03-18T00:51:48;100879.50;;;9.68;88.24
59337;BME280;45115;52.002;4.686;2023-03-18T00:54:17;100870.16;;;9.71;87.83
59337;BME280;45115;52.002;4.686;2023-03-18T00:56:46;100873.59;;;9.73;88.02
59337;BME280;45115;52.002;4.686;2023-03-18T00:59:13;100870.03;;;9.72;88.08
59337;BME280;45115;52.002;4.686;2023-03-18T01:01:43;100871.59;;;9.75;87.67
59337;BME280;45115;52.002;4.686;2023-03-18T01:04:11;100864.41;;;9.74;88.08
59337;BME280;45115;52.002;4.686;2023-03-18T01:06:38;100865.28;;;9.74;87.67
59337;BME280;45115;52.002;4.686;2023-03-18T01:09:07;100858.94;;;9.74;87.32
59337;BME280;45115;52.002;4.686;2023-03-18T01:11:37;100868.03;;;9.74;87.91
59337;BME280;45115;52.002;4.686;2023-03-18T01:14:04;100872.75;;;9.72;87.86
59337;BME280;45115;52.002;4.686;2023-03-18T01:16:31;100865.00;;;9.77;87.68
59337;BME280;45115;52.002;4.686;2023-03-18T01:18:59;100856.66;;;9.79;88.04
59337;BME280;45115;52.002;4.686;2023-03-18T01:21:26;100859.09;;;9.72;87.69
59337;BME280;45115;52.002;4.686;2023-03-18T01:23:56;100863.69;;;9.81;87.82
59337;BME280;45115;52.002;4.686;2023-03-18T01:26:25;100868.31;;;9.81;87.68
59337;BME280;45115;52.002;4.686;2023-03-18T01:28:54;100861.69;;;9.83;87.77
59337;BME280;45115;52.002;4.686;2023-03-18T01:31:21;100854.63;;;9.81;87.99
59337;BME280;45115;52.002;4.686;2023-03-18T01:33:50;100859.53;;;9.87;87.80
59337;BME280;45115;52.002;4.686;2023-03-18T01:36:18;100863.44;;;9.94;87.74
59337;BME280;45115;52.002;4.686;2023-03-18T01:38:58;100873.69;;;10.01;87.32
59337;BME280;45115;52.002;4.686;2023-03-18T01:41:25;100883.69;;;10.12;87.42
59337;BME280;45115;52.002;4.686;2023-03-18T01:43:53;100881.81;;;10.13;87.25
59337;BME280;45115;52.002;4.686;2023-03-18T01:46:30;100872.00;;;10.10;87.32
59337;BME280;45115;52.002;4.686;2023-03-18T01:48:59;100869.72;;;10.15;87.75
59337;BME280;45115;52.002;4.686;2023-03-18T01:51:28;100867.56;;;10.09;87.51
59337;BME280;45115;52.002;4.686;2023-03-18T01:53:56;100865.78;;;10.08;87.57
59337;BME280;45115;52.002;4.686;2023-03-18T01:56:25;100876.34;;;10.13;87.52
59337;BME280;45115;52.002;4.686;2023-03-18T01:58:54;100870.28;;;10.09;87.76
59337;BME280;45115;52.002;4.686;2023-03-18T02:01:25;100869.81;;;10.04;87.33
59337;BME280;45115;52.002;4.686;2023-03-18T02:03:56;100859.13;;;9.91;87.70
59337;BME280;45115;52.002;4.686;2023-03-18T02:06:24;100870.38;;;9.98;88.07
59337;BME280;45115;52.002;4.686;2023-03-18T02:09:00;100862.72;;;9.92;88.01
59337;BME280;45115;52.002;4.686;2023-03-18T02:11:29;100874.38;;;9.94;88.21
59337;BME280;45115;52.002;4.686;2023-03-18T02:13:58;100889.66;;;9.96;87.93
59337;BME280;45115;52.002;4.686;2023-03-18T02:16:28;100885.91;;;9.97;88.27
59337;BME280;45115;52.002;4.686;2023-03-18T02:19:00;100888.25;;;10.02;88.09
59337;BME280;45115;52.002;4.686;2023-03-18T02:21:41;100876.28;;;10.03;87.73
59337;BME280;45115;52.002;4.686;2023-03-18T02:24:19;100876.28;;;10.03;88.03
59337;BME280;45115;52.002;4.686;2023-03-18T02:26:52;100879.59;;;10.06;87.84
59337;BME280;45115;52.002;4.686;2023-03-18T02:29:31;100881.63;;;10.04;87.82
59337;BME280;45115;52.002;4.686;2023-03-18T02:32:05;100876.44;;;10.01;88.14
59337;BME280;45115;52.002;4.686;2023-03-18T02:34:34;100874.72;;;10.00;87.83
59337;BME280;45115;52.002;4.686;2023-03-18T02:37:03;100887.66;;;9.98;87.70
59337;BME280;45115;52.002;4.686;2023-03-18T02:39:32;100886.50;;;9.91;88.14
59337;BME280;45115;52.002;4.686;2023-03-18T02:42:00;100884.88;;;9.89;88.95
59337;BME280;45115;52.002;4.686;2023-03-18T02:44:29;100878.84;;;9.85;88.48
59337;BME280;45115;52.002;4.686;2023-03-18T02:47:19;100893.38;;;9.86;88.65
59337;BME280;45115;52.002;4.686;2023-03-18T02:49:47;100882.16;;;9.79;88.64
59337;BME280;45115;52.002;4.686;2023-03-18T02:52:14;100888.19;;;9.83;89.41
59337;BME280;45115;52.002;4.686;2023-03-18T02:54:41;100893.78;;;9.81;89.39
59337;BME280;45115;52.002;4.686;2023-03-18T02:57:08;100891.91;;;9.82;89.15
59337;BME280;45115;52.002;4.686;2023-03-18T02:59:38;100889.34;;;9.80;89.18
59337;BME280;45115;52.002;4.686;2023-03-18T03:02:05;100891.78;;;9.83;89.43
59337;BME280;45115;52.002;4.686;2023-03-18T03:04:32;100889.78;;;9.85;89.14
59337;BME280;45115;52.002;4.686;2023-03-18T03:06:59;100901.44;;;9.87;89.37
59337;BME280;45115;52.002;4.686;2023-03-18T03:09:37;100892.38;;;9.87;89.33
59337;BME280;45115;52.002;4.686;2023-03-18T03:12:05;100899.31;;;9.91;89.26
59337;BME280;45115;52.002;4.686;2023-03-18T03:14:39;100895.88;;;9.98;88.97
59337;BME280;45115;52.002;4.686;2023-03-18T03:17:06;100899.94;;;10.04;88.63
59337;BME280;45115;52.002;4.686;2023-03-18T03:19:33;100893.97;;;9.99;88.72
59337;BME280;45115;52.002;4.686;2023-03-18T03:22:01;100897.31;;;10.02;88.83
59337;BME280;45115;52.002;4.686;2023-03-18T03:24:28;100904.53;;;10.03;88.63
59337;BME280;45115;52.002;4.686;2023-03-18T03:26:55;100893.13;;;9.98;89.00
59337;BME280;45115;52.002;4.686;2023-03-18T03:29:22;100900.63;;;10.06;89.30
59337;BME280;45115;52.002;4.686;2023-03-18T03:31:50;100909.84;;;10.05;88.71
59337;BME280;45115;52.002;4.686;2023-03-18T03:34:17;100912.44;;;10.06;89.57
59337;BME280;45115;52.002;4.686;2023-03-18T03:36:43;100912.31;;;10.08;89.45
59337;BME280;45115;52.002;4.686;2023-03-18T03:39:10;100912.91;;;10.11;89.32
59337;BME280;45115;52.002;4.686;2023-03-18T03:41:38;100911.22;;;10.20;89.45
59337;BME280;45115;52.002;4.686;2023-03-18T03:44:04;100916.81;;;10.19;89.83
59337;BME280;45115;52.002;4.686;2023-03-18T03:46:31;100928.50;;;10.21;90.05
59337;BME280;45115;52.002;4.686;2023-03-18T03:49:00;100911.66;;;10.16;89.88
59337;BME280;45115;52.002;4.686;2023-03-18T03:51:26;100918.88;;;10.26;90.16
59337;BME280;45115;52.002;4.686;2023-03-18T03:53:53;100919.16;;;10.33;90.16
59337;BME280;45115;52.002;4.686;2023-03-18T03:56:20;100909.06;;;10.24;90.33
59337;BME280;45115;52.002;4.686;2023-03-18T03:58:47;100915.69;;;10.21;90.95
59337;BME280;45115;52.002;4.686;2023-03-18T04:01:14;100914.53;;;10.24;90.92
59337;BME280;45115;52.002;4.686;2023-03-18T04:03:43;100925.47;;;10.24;91.28
59337;BME280;45115;52.002;4.686;2023-03-18T04:06:12;100911.69;;;10.25;91.02
59337;BME280;45115;52.002;4.686;2023-03-18T04:08:46;100916.81;;;10.19;91.57
59337;BME280;45115;52.002;4.686;2023-03-18T04:11:13;100918.88;;;10.26;91.29
59337;BME280;45115;52.002;4.686;2023-03-18T04:13:40;100916.69;;;10.20;91.72
59337;BME280;45115;52.002;4.686;2023-03-18T04:16:07;100911.94;;;10.22;91.85
59337;BME280;45115;52.002;4.686;2023-03-18T04:18:34;100915.84;;;10.20;91.93
59337;BME280;45115;52.002;4.686;2023-03-18T04:21:00;100913.84;;;10.22;91.59
59337;BME280;45115;52.002;4.686;2023-03-18T04:23:58;100913.34;;;10.17;91.99
59337;BME280;45115;52.002;4.686;2023-03-18T04:26:25;100918.88;;;10.26;92.09
59337;BME280;45115;52.002;4.686;2023-03-18T04:28:56;100923.06;;;10.30;92.34
59337;BME280;45115;52.002;4.686;2023-03-18T04:31:23;100928.22;;;10.24;92.08
59337;BME280;45115;52.002;4.686;2023-03-18T04:33:50;100921.59;;;10.26;92.37
59337;BME280;45115;52.002;4.686;2023-03-18T04:36:17;100940.91;;;10.25;92.27
59337;BME280;45115;52.002;4.686;2023-03-18T04:38:43;100932.53;;;10.17;92.36
59337;BME280;45115;52.002;4.686;2023-03-18T04:41:12;100956.63;;;10.23;93.02
59337;BME280;45115;52.002;4.686;2023-03-18T04:43:38;100957.88;;;10.19;92.69
59337;BME280;45115;52.002;4.686;2023-03-18T04:46:06;100965.25;;;10.18;92.96
59337;BME280;45115;52.002;4.686;2023-03-18T04:48:35;100959.63;;;10.20;92.74
59337;BME280;45115;52.002;4.686;2023-03-18T04:51:04;100962.63;;;10.17;92.74
59337;BME280;45115;52.002;4.686;2023-03-18T04:53:37;100964.94;;;10.11;93.46
59337;BME280;45115;52.002;4.686;2023-03-18T04:56:04;100973.19;;;10.21;93.00
59337;BME280;45115;52.002;4.686;2023-03-18T04:58:45;100973.78;;;10.25;92.87
59337;BME280;45115;52.002;4.686;2023-03-18T05:01:19;100980.13;;;10.25;92.43
59337;BME280;45115;52.002;4.686;2023-03-18T05:03:46;100981.97;;;10.25;92.81
59337;BME280;45115;52.002;4.686;2023-03-18T05:06:20;100982.28;;;10.22;93.56
59337;BME280;45115;52.002;4.686;2023-03-18T05:08:54;100982.53;;;10.19;93.10
59337;BME280;45115;52.002;4.686;2023-03-18T05:11:26;100986.13;;;10.19;92.69
59337;BME280;45115;52.002;4.686;2023-03-18T05:13:56;100970.69;;;10.08;93.22
59337;BME280;45115;52.002;4.686;2023-03-18T05:16:23;100988.78;;;10.00;93.43
59337;BME280;45115;52.002;4.686;2023-03-18T05:18:50;100986.91;;;10.00;93.11
59337;BME280;45115;52.002;4.686;2023-03-18T05:21:17;100986.03;;;10.00;93.81
59337;BME280;45115;52.002;4.686;2023-03-18T05:23:44;100979.84;;;9.98;94.23
59337;BME280;45115;52.002;4.686;2023-03-18T05:26:11;100976.94;;;9.99;93.29
59337;BME280;45115;52.002;4.686;2023-03-18T05:28:39;100978.81;;;9.99;93.97
59337;BME280;45115;52.002;4.686;2023-03-18T05:31:19;100967.53;;;9.83;93.55
59337;BME280;45115;52.002;4.686;2023-03-18T05:33:46;100975.16;;;9.79;93.97
59337;BME280;45115;52.002;4.686;2023-03-18T05:36:13;100983.28;;;9.70;94.46
59337;BME280;45115;52.002;4.686;2023-03-18T05:38:51;100983.44;;;9.68;94.88
59337;BME280;45115;52.002;4.686;2023-03-18T05:41:18;100985.06;;;9.71;95.04
59337;BME280;45115;52.002;4.686;2023-03-18T05:43:45;100984.31;;;9.69;95.26
59337;BME280;45115;52.002;4.686;2023-03-18T05:46:13;100987.38;;;9.75;95.37
59337;BME280;45115;52.002;4.686;2023-03-18T05:49:04;100982.91;;;9.74;94.94
59337;BME280;45115;52.002;4.686;2023-03-18T05:51:42;100976.72;;;9.82;95.03
59337;BME280;45115;52.002;4.686;2023-03-18T05:54:12;100977.78;;;9.90;95.13
59337;BME280;45115;52.002;4.686;2023-03-18T05:56:42;100974.19;;;9.90;95.03
59337;BME280;45115;52.002;4.686;2023-03-18T05:59:10;100965.09;;;9.89;94.99
59337;BME280;45115;52.002;4.686;2023-03-18T06:01:51;100976.78;;;9.91;95.14
59337;BME280;45115;52.002;4.686;2023-03-18T06:04:19;100986.13;;;9.89;94.70
59337;BME280;45115;52.002;4.686;2023-03-18T06:06:46;100987.97;;;9.79;94.09
59337;BME280;45115;52.002;4.686;2023-03-18T06:09:17;100990.44;;;9.61;94.62
59337;BME280;45115;52.002;4.686;2023-03-18T06:11:45;100992.41;;;9.50;94.60
59337;BME280;45115;52.002;4.686;2023-03-18T06:14:12;100994.06;;;9.41;95.03
59337;BME280;45115;52.002;4.686;2023-03-18T06:16:40;100992.94;;;9.23;94.48
59337;BME280;45115;52.002;4.686;2023-03-18T06:19:07;100998.59;;;9.11;95.11
59337;BME280;45115;52.002;4.686;2023-03-18T06:21:36;101004.47;;;9.06;95.22
59337;BME280;45115;52.002;4.686;2023-03-18T06:24:04;101004.38;;;8.96;94.93
59337;BME280;45115;52.002;4.686;2023-03-18T06:26:32;101017.44;;;8.93;95.53
59337;BME280;45115;52.002;4.686;2023-03-18T06:29:00;101019.28;;;8.92;95.57
59337;BME280;45115;52.002;4.686;2023-03-18T06:31:28;101023.63;;;8.95;95.58
59337;BME280;45115;52.002;4.686;2023-03-18T06:33:55;101026.19;;;9.08;95.65
59337;BME280;45115;52.002;4.686;2023-03-18T06:36:23;101020.97;;;9.04;95.39
59337;BME280;45115;52.002;4.686;2023-03-18T06:38:52;101030.50;;;9.10;95.99
59337;BME280;45115;52.002;4.686;2023-03-18T06:41:22;101038.56;;;9.12;95.86
59337;BME280;45115;52.002;4.686;2023-03-18T06:44:11;101034.59;;;9.16;94.95
59337;BME280;45115;52.002;4.686;2023-03-18T06:46:39;101045.06;;;9.31;95.83
59337;BME280;45115;52.002;4.686;2023-03-18T06:49:08;101046.88;;;9.42;96.13
59337;BME280;45115;52.002;4.686;2023-03-18T06:51:40;101045.94;;;9.52;95.72
59337;BME280;45115;52.002;4.686;2023-03-18T06:54:11;101053.22;;;9.63;95.59
59337;BME280;45115;52.002;4.686;2023-03-18T06:56:37;101043.19;;;9.73;95.26
59337;BME280;45115;52.002;4.686;2023-03-18T06:59:12;101048.66;;;9.93;94.95
59337;BME280;45115;52.002;4.686;2023-03-18T07:01:39;101048.28;;;10.28;94.77
59337;BME280;45115;52.002;4.686;2023-03-18T07:04:06;101054.03;;;10.93;94.10
59337;BME280;45115;52.002;4.686;2023-03-18T07:06:36;101052.63;;;11.56;90.62
59337;BME280;45115;52.002;4.686;2023-03-18T07:09:03;101044.34;;;11.94;90.00
59337;BME280;45115;52.002;4.686;2023-03-18T07:11:32;101050.91;;;12.20;88.05
59337;BME280;45115;52.002;4.686;2023-03-18T07:14:04;101048.81;;;12.42;87.39
59337;BME280;45115;52.002;4.686;2023-03-18T07:16:34;101050.47;;;12.97;85.50
59337;BME280;45115;52.002;4.686;2023-03-18T07:19:01;101054.00;;;13.34;82.98
59337;BME280;45115;52.002;4.686;2023-03-18T07:21:29;101053.22;;;13.59;80.06
59337;BME280;45115;52.002;4.686;2023-03-18T07:23:56;101054.69;;;13.71;79.16
59337;BME280;45115;52.002;4.686;2023-03-18T07:26:23;101055.31;;;13.48;79.33
59337;BME280;45115;52.002;4.686;2023-03-18T07:28:52;101052.03;;;13.44;79.64
59337;BME280;45115;52.002;4.686;2023-03-18T07:31:18;101052.75;;;13.28;79.81
59337;BME280;45115;52.002;4.686;2023-03-18T07:33:45;101047.63;;;13.16;80.43
59337;BME280;45115;52.002;4.686;2023-03-18T07:36:14;101053.59;;;13.11;80.48
59337;BME280;45115;52.002;4.686;2023-03-18T07:38:41;101059.22;;;12.92;81.24
59337;BME280;45115;52.002;4.686;2023-03-18T07:41:08;101061.06;;;12.74;81.78
59337;BME280;45115;52.002;4.686;2023-03-18T07:43:34;101064.00;;;12.90;81.44
59337;BME280;45115;52.002;4.686;2023-03-18T07:46:02;101056.81;;;13.42;79.53
59337;BME280;45115;52.002;4.686;2023-03-18T07:48:30;101057.16;;;13.82;78.04
59337;BME280;45115;52.002;4.686;2023-03-18T07:50:58;101054.00;;;14.20;76.70
59337;BME280;45115;52.002;4.686;2023-03-18T07:53:25;101062.16;;;14.30;74.89
59337;BME280;45115;52.002;4.686;2023-03-18T07:55:52;101053.44;;;14.76;74.30
59337;BME280;45115;52.002;4.686;2023-03-18T07:58:18;101055.50;;;14.74;73.43
59337;BME280;45115;52.002;4.686;2023-03-18T08:00:45;101062.09;;;14.89;72.91
59337;BME280;45115;52.002;4.686;2023-03-18T08:03:15;101058.84;;;14.94;73.12
59337;BME280;45115;52.002;4.686;2023-03-18T08:05:44;101060.91;;;14.92;72.63
59337;BME280;45115;52.002;4.686;2023-03-18T08:08:10;101051.09;;;14.55;73.49
59337;BME280;45115;52.002;4.686;2023-03-18T08:10:37;101057.00;;;14.27;74.91
59337;BME280;45115;52.002;4.686;2023-03-18T08:13:04;101053.41;;;13.83;76.43
59337;BME280;45115;52.002;4.686;2023-03-18T08:15:32;101052.84;;;13.80;77.78
59337;BME280;45115;52.002;4.686;2023-03-18T08:17:58;101052.44;;;13.92;76.84
59337;BME280;45115;52.002;4.686;2023-03-18T08:20:26;101051.72;;;14.16;76.50
59337;BME280;45115;52.002;4.686;2023-03-18T08:22:53;101045.69;;;14.38;74.90
59337;BME280;45115;52.002;4.686;2023-03-18T08:25:20;101051.38;;;14.78;72.88
59337;BME280;45115;52.002;4.686;2023-03-18T08:27:48;101061.91;;;14.83;72.45
59337;BME280;45115;52.002;4.686;2023-03-18T08:30:14;101058.28;;;14.82;72.19
59337;BME280;45115;52.002;4.686;2023-03-18T08:32:41;101054.28;;;14.77;72.25
59337;BME280;45115;52.002;4.686;2023-03-18T08:35:09;101042.88;;;15.21;71.23
59337;BME280;45115;52.002;4.686;2023-03-18T08:37:37;101061.47;;;15.11;71.27
59337;BME280;45115;52.002;4.686;2023-03-18T08:40:05;101072.94;;;14.91;71.67
59337;BME280;45115;52.002;4.686;2023-03-18T08:42:34;101068.56;;;15.38;70.67
59337;BME280;45115;52.002;4.686;2023-03-18T08:45:00;101081.69;;;15.28;70.93
59337;BME280;45115;52.002;4.686;2023-03-18T08:47:29;101084.88;;;14.99;71.11
59337;BME280;45115;52.002;4.686;2023-03-18T08:49:55;101092.13;;;15.00;71.74
59337;BME280;45115;52.002;4.686;2023-03-18T08:52:22;101090.91;;;14.95;71.38
59337;BME280;45115;52.002;4.686;2023-03-18T08:54:51;101100.25;;;15.02;71.26
59337;BME280;45115;52.002;4.686;2023-03-18T08:57:17;101117.84;;;14.67;72.21
59337;BME280;45115;52.002;4.686;2023-03-18T08:59:44;101105.16;;;14.48;73.48
59337;BME280;45115;52.002;4.686;2023-03-18T09:02:13;101109.16;;;14.54;73.92
59337;BME280;45115;52.002;4.686;2023-03-18T09:04:46;101098.31;;;14.94;72.30
59337;BME280;45115;52.002;4.686;2023-03-18T09:07:13;101114.31;;;14.91;72.36
59337;BME280;45115;52.002;4.686;2023-03-18T09:09:40;101124.94;;;15.11;72.57
59337;BME280;45115;52.002;4.686;2023-03-18T09:12:09;101129.94;;;15.08;71.92
59337;BME280;45115;52.002;4.686;2023-03-18T09:14:40;101129.31;;;14.54;72.63
59337;BME280;45115;52.002;4.686;2023-03-18T09:17:36;101134.84;;;14.54;72.54
59337;BME280;45115;52.002;4.686;2023-03-18T09:20:05;101137.25;;;14.83;71.86
59337;BME280;45115;52.002;4.686;2023-03-18T09:22:51;101130.94;;;15.07;70.98
59337;BME280;45115;52.002;4.686;2023-03-18T09:25:33;101126.00;;;15.26;70.66
59337;BME280;45115;52.002;4.686;2023-03-18T09:28:01;101124.09;;;15.19;70.50
59337;BME280;45115;52.002;4.686;2023-03-18T09:30:32;101119.38;;;15.61;69.57
59337;BME280;45115;52.002;4.686;2023-03-18T09:32:59;101112.31;;;15.75;68.58
59337;BME280;45115;52.002;4.686;2023-03-18T09:35:27;101105.06;;;16.14;68.30
59337;BME280;45115;52.002;4.686;2023-03-18T09:37:54;101102.25;;;16.38;67.02
59337;BME280;45115;52.002;4.686;2023-03-18T09:40:23;101106.63;;;16.00;66.55
59337;BME280;45115;52.002;4.686;2023-03-18T09:42:57;101116.28;;;15.64;68.44
59337;BME280;45115;52.002;4.686;2023-03-18T09:45:36;101117.13;;;15.64;68.30
59337;BME280;45115;52.002;4.686;2023-03-18T09:48:29;101111.09;;;16.01;67.50
59337;BME280;45115;52.002;4.686;2023-03-18T09:51:04;101112.16;;;15.84;67.01
59337;BME280;45115;52.002;4.686;2023-03-18T09:53:40;101111.47;;;15.90;67.20
59337;BME280;45115;52.002;4.686;2023-03-18T09:56:13;101111.63;;;15.81;67.62
59337;BME280;45115;52.002;4.686;2023-03-18T09:58:46;101113.00;;;15.69;67.36
59337;BME280;45115;52.002;4.686;2023-03-18T10:01:18;101123.38;;;15.58;68.18
59337;BME280;45115;52.002;4.686;2023-03-18T10:03:49;101117.00;;;15.74;68.25
59337;BME280;45115;52.002;4.686;2023-03-18T10:06:19;101122.31;;;15.68;68.06
59337;BME280;45115;52.002;4.686;2023-03-18T10:08:59;101121.28;;;15.60;67.86
59337;BME280;45115;52.002;4.686;2023-03-18T10:11:32;101127.78;;;15.35;68.48
59337;BME280;45115;52.002;4.686;2023-03-18T10:14:19;101120.50;;;15.34;68.94
59337;BME280;45115;52.002;4.686;2023-03-18T10:16:56;101115.06;;;15.50;68.78
59337;BME280;45115;52.002;4.686;2023-03-18T10:19:27;101124.06;;;15.77;67.99
59337;BME280;45115;52.002;4.686;2023-03-18T10:22:03;101124.94;;;15.77;68.17
59337;BME280;45115;52.002;4.686;2023-03-18T10:24:36;101125.09;;;15.84;67.84
59337;BME280;45115;52.002;4.686;2023-03-18T10:27:08;101125.44;;;15.81;66.72
59337;BME280;45115;52.002;4.686;2023-03-18T10:29:39;101122.50;;;15.82;67.38
59337;BME280;45115;52.002;4.686;2023-03-18T10:32:20;101127.31;;;15.64;68.23
59337;BME280;45115;52.002;4.686;2023-03-18T10:34:57;101130.28;;;15.71;67.52
59337;BME280;45115;52.002;4.686;2023-03-18T10:37:35;101125.97;;;15.76;67.92
59337;BME280;45115;52.002;4.686;2023-03-18T10:40:11;101129.91;;;15.82;67.88
59337;BME280;45115;52.002;4.686;2023-03-18T10:42:40;101126.66;;;15.94;67.18
59337;BME280;45115;52.002;4.686;2023-03-18T10:45:15;101134.94;;;15.78;68.08
59337;BME280;45115;52.002;4.686;2023-03-18T10:47:50;101135.47;;;15.74;68.20
59337;BME280;45115;52.002;4.686;2023-03-18T10:50:24;101126.31;;;15.81;67.39
59337;BME280;45115;52.002;4.686;2023-03-18T10:53:01;101123.03;;;15.86;67.60
59337;BME280;45115;52.002;4.686;2023-03-18T10:55:34;101127.16;;;15.98;67.49
59337;BME280;45115;52.002;4.686;2023-03-18T10:58:13;101129.56;;;16.01;67.02
59337;BME280;45115;52.002;4.686;2023-03-18T11:00:40;101123.53;;;16.29;66.49
59337;BME280;45115;52.002;4.686;2023-03-18T11:03:18;101118.16;;;16.44;65.80
59337;BME280;45115;52.002;4.686;2023-03-18T11:05:46;101125.41;;;16.37;65.53
59337;BME280;45115;52.002;4.686;2023-03-18T11:08:29;101136.66;;;16.11;66.94
59337;BME280;45115;52.002;4.686;2023-03-18T11:11:02;101129.44;;;16.02;67.78
59337;BME280;45115;52.002;4.686;2023-03-18T11:13:44;101131.31;;;15.86;67.82
59337;BME280;45115;52.002;4.686;2023-03-18T11:16:19;101126.47;;;15.63;69.57
59337;BME280;45115;52.002;4.686;2023-03-18T11:18:49;101126.53;;;15.38;70.91
59337;BME280;45115;52.002;4.686;2023-03-18T11:21:17;101121.19;;;15.28;71.24
59337;BME280;45115;52.002;4.686;2023-03-18T11:23:52;101128.47;;;15.37;70.48
59337;BME280;45115;52.002;4.686;2023-03-18T11:26:43;101125.72;;;15.37;70.03
59337;BME280;45115;52.002;4.686;2023-03-18T11:29:15;101122.97;;;15.53;69.66
59337;BME280;45115;52.002;4.686;2023-03-18T11:31:48;101121.13;;;15.86;67.89
59337;BME280;45115;52.002;4.686;2023-03-18T11:34:17;101122.34;;;15.92;66.70
59337;BME280;45115;52.002;4.686;2023-03-18T11:36:52;101116.28;;;16.04;65.97
59337;BME280;45115;52.002;4.686;2023-03-18T11:39:21;101123.03;;;16.02;65.33
59337;BME280;45115;52.002;4.686;2023-03-18T11:41:50;101116.13;;;16.14;64.83
59337;BME280;45115;52.002;4.686;2023-03-18T11:44:30;101111.28;;;16.08;65.69
59337;BME280;45115;52.002;4.686;2023-03-18T11:47:02;101118.72;;;16.07;64.92
59337;BME280;45115;52.002;4.686;2023-03-18T11:49:32;101123.72;;;16.12;65.02
59337;BME280;45115;52.002;4.686;2023-03-18T11:52:17;101118.38;;;16.02;65.13
59337;BME280;45115;52.002;4.686;2023-03-18T11:55:06;101131.66;;;15.91;65.69
59337;BME280;45115;52.002;4.686;2023-03-18T11:57:44;101128.19;;;15.64;66.30
59337;BME280;45115;52.002;4.686;2023-03-18T12:00:25;101117.97;;;15.57;67.13
59337;BME280;45115;52.002;4.686;2023-03-18T12:03:20;101123.00;;;15.70;66.83
59337;BME280;45115;52.002;4.686;2023-03-18T12:06:00;101112.81;;;16.18;67.22
59337;BME280;45115;52.002;4.686;2023-03-18T12:08:40;101108.66;;;16.22;66.17
59337;BME280;45115;52.002;4.686;2023-03-18T12:11:16;101107.78;;;16.38;66.73
59337;BME280;45115;52.002;4.686;2023-03-18T12:13:53;101111.41;;;16.38;64.80
59337;BME280;45115;52.002;4.686;2023-03-18T12:16:35;101106.41;;;16.42;63.92
59337;BME280;45115;52.002;4.686;2023-03-18T12:19:18;101108.66;;;16.38;63.62
59337;BME280;45115;52.002;4.686;2023-03-18T12:22:13;101107.03;;;16.68;62.41
59337;BME280;45115;52.002;4.686;2023-03-18T12:24:56;101105.38;;;16.98;62.27
59337;BME280;45115;52.002;4.686;2023-03-18T12:27:30;101114.03;;;16.95;61.21
59337;BME280;45115;52.002;4.686;2023-03-18T12:30:13;101116.16;;;16.85;61.91
59337;BME280;45115;52.002;4.686;2023-03-18T12:32:48;101119.25;;;16.90;61.47
59337;BME280;45115;52.002;4.686;2023-03-18T12:35:27;101108.56;;;16.79;62.13
59337;BME280;45115;52.002;4.686;2023-03-18T12:38:12;101116.34;;;16.75;61.72
59337;BME280;45115;52.002;4.686;2023-03-18T12:40:47;101109.25;;;16.81;61.82
59337;BME280;45115;52.002;4.686;2023-03-18T12:43:37;101107.31;;;16.89;60.83
59337;BME280;45115;52.002;4.686;2023-03-18T12:46:20;101103.22;;;16.77;60.95
59337;BME280;45115;52.002;4.686;2023-03-18T12:48:51;101105.47;;;16.65;60.88
59337;BME280;45115;52.002;4.686;2023-03-18T12:51:22;101097.19;;;16.73;61.16
59337;BME280;45115;52.002;4.686;2023-03-18T12:53:54;101096.91;;;16.52;61.87
59337;BME280;45115;52.002;4.686;2023-03-18T12:56:24;101087.53;;;16.61;62.02
59337;BME280;45115;52.002;4.686;2023-03-18T12:58:56;101093.03;;;16.78;60.18
59337;BME280;45115;52.002;4.686;2023-03-18T13:01:31;101086.75;;;16.84;60.45
59337;BME280;45115;52.002;4.686;2023-03-18T13:04:03;101094.47;;;16.96;60.29
59337;BME280;45115;52.002;4.686;2023-03-18T13:06:36;101094.97;;;17.30;59.73
59337;BME280;45115;52.002;4.686;2023-03-18T13:09:10;101089.56;;;17.67;58.99
59337;BME280;45115;52.002;4.686;2023-03-18T13:12:08;101093.03;;;17.69;59.41